Skip Navigation LinksHome page > Weather > Current weather Skip Navigation Links

Current Weather

Burke Lakefront, Cleveland

For information only: do not use for flight planning or navigation.
Latest weather
Observation time Thursday, November 21, 2019 1:53 PM EST
Local time Thursday, November 21, 2019 2:59 PM EST
Flight conditions Visual Meteorological Conditions
Winds
Wind direction South-Southeast (160°)
Wind speed 23 mph
Wind gusting to 31 mph
Peak wind speed 33 mph, 1:22 PM
Peak wind direction South (170°)
Visibility 10 mi.
Sky condition
Ceiling 11,000 ft. broken clouds
Cloud layer broken clouds 11,000 ft.
Temperature 51°F
Dewpoint 35°F
Altimeter 29.87 in.Hg
Derived measurements
Relative humidity 54%
Density altitude 221 ft.
Sea-level pressure 29.88 in.Hg
Remarks
Automated weather observing station with precipitation discriminator.
METAR KBKL 211853Z 16020G27KT 10SM BKN110 11/02 A2987 RMK AO2 PK WND 17029/1822 SLP118 T01060017

Settings

Location code

InnerDrive.Weather 4.0.6770.0 Release CLR 4.0.30319.42000
Copyright ©2018 Inner Drive Technology. All rights reserved. Portions Copyright ©1986-2018 David Braverman.

Find weather

Site navigation


Skip Navigation Links

Place info

Page info

PayPal - The safer, easier way to pay online!

Return home.

Copyright ©2019 Inner Drive Technology. Purveyors of fine, hand-crafted computer software. Page printed 2019-11-21T19:59:32 UTC.